Time;durP1;ratioP1;P1;durP2;ratioP2;P2;SDS_P1;SDS_P2;PMS_P1;PMS_P2;Temp;Humidity;BMP_temperature;BMP_pressure;BME280_temperature;BME280_humidity;BME280_pressure;Samples;Min_cycle;Max_cycle;Signal;HPM_P1;HPM_P2
2022/11/14 00:00:24;;;;;;;22.10;18.53;;;;;;;6.32;100.00;102734.38;2071572;28;20196;-69
2022/11/14 00:01:24;;;;;;;20.92;18.67;;;;;;;6.38;100.00;102735.72;2071079;28;20186;-69
2022/11/14 00:02:25;;;;;;;22.47;18.30;;;;;;;6.38;100.00;102738.47;2070267;28;21108;-69
2022/11/14 00:03:26;;;;;;;23.70;19.25;;;;;;;6.42;100.00;102731.88;2071340;28;20674;-69
2022/11/14 00:04:26;;;;;;;25.03;19.90;;;;;;;6.43;100.00;102733.50;2071457;28;20651;-69
2022/11/14 00:05:27;;;;;;;25.10;20.10;;;;;;;6.41;100.00;102729.50;2071838;28;20196;-69
2022/11/14 00:06:27;;;;;;;22.70;19.23;;;;;;;6.39;100.00;102731.81;2071440;28;20282;-69
2022/11/14 00:07:31;;;;;;;26.50;19.50;;;;;;;6.31;100.00;102725.31;2071193;28;20189;-69
2022/11/14 00:08:32;;;;;;;25.88;18.17;;;;;;;6.37;100.00;102728.63;2072244;28;20228;-69
2022/11/14 00:09:32;;;;;;;26.67;20.17;;;;;;;6.24;100.00;102719.63;2071278;28;20199;-69
2022/11/14 00:10:33;;;;;;;24.80;19.07;;;;;;;6.29;100.00;102722.13;2071407;28;20220;-69
2022/11/14 00:11:33;;;;;;;26.13;18.33;;;;;;;6.32;100.00;102723.38;2072569;28;20201;-69
2022/11/14 00:12:34;;;;;;;25.37;19.27;;;;;;;6.28;100.00;102728.78;2071292;28;20200;-69
2022/11/14 00:13:34;;;;;;;25.03;19.63;;;;;;;5.38;100.00;102600.44;2071290;28;20229;-69
2022/11/14 00:14:36;;;;;;;24.63;19.93;;;;;;;5.68;100.00;102645.66;2071576;28;20228;-69
2022/11/14 00:15:36;;;;;;;24.23;19.42;;;;;;;6.25;100.00;102734.97;2071288;28;20224;-70
2022/11/14 00:16:36;;;;;;;26.13;20.17;;;;;;;6.22;100.00;102737.63;2070939;28;20213;-70
2022/11/14 00:17:37;;;;;;;25.20;19.10;;;;;;;6.19;100.00;102747.41;2071404;28;20240;-69
2022/11/14 00:18:38;;;;;;;24.17;19.23;;;;;;;6.18;100.00;102734.78;2071673;28;20189;-69
2022/11/14 00:19:38;;;;;;;24.03;18.37;;;;;;;6.17;100.00;102727.69;2071685;28;20275;-69
2022/11/14 00:20:38;;;;;;;22.30;18.57;;;;;;;5.64;100.00;102655.78;2071700;28;20709;-69
2022/11/14 00:21:39;;;;;;;23.40;18.27;;;;;;;6.13;100.00;102725.97;2071751;28;20227;-69
2022/11/14 00:22:39;;;;;;;21.50;18.43;;;;;;;5.75;100.00;102671.41;2070494;28;20700;-69
2022/11/14 00:23:40;;;;;;;22.37;18.23;;;;;;;6.09;100.00;102733.34;2071032;28;20204;-69
2022/11/14 00:24:40;;;;;;;20.87;17.47;;;;;;;6.06;100.00;102731.31;2069941;28;20331;-69
2022/11/14 00:25:42;;;;;;;21.57;17.40;;;;;;;5.81;100.00;102696.78;2070656;28;20277;-69
2022/11/14 00:26:43;;;;;;;21.80;17.33;;;;;;;5.40;100.00;102631.94;2070759;28;20270;-69
2022/11/14 00:27:43;;;;;;;18.73;16.50;;;;;;;6.05;100.00;102730.47;2071028;28;20307;-69
2022/11/14 00:28:44;;;;;;;19.73;17.43;;;;;;;6.05;100.00;102738.75;2071785;28;20724;-69
2022/11/14 00:29:44;;;;;;;19.93;16.63;;;;;;;6.07;100.00;102733.72;2070853;28;20216;-69
2022/11/14 00:30:47;;;;;;;20.00;17.80;;;;;;;6.08;100.00;102729.78;2071549;28;20220;-69
2022/11/14 00:31:47;;;;;;;22.45;18.20;;;;;;;6.07;100.00;102730.94;2070479;28;20773;-69
2022/11/14 00:32:48;;;;;;;18.63;16.33;;;;;;;6.10;100.00;102737.72;2071124;28;20624;-69
2022/11/14 00:33:48;;;;;;;18.17;15.87;;;;;;;6.09;100.00;102725.88;2070614;28;20185;-69
2022/11/14 00:34:49;;;;;;;19.57;16.07;;;;;;;5.65;100.00;102649.91;2071459;28;20220;-69
2022/11/14 00:35:53;;;;;;;19.77;17.07;;;;;;;6.10;100.00;102723.94;2071445;28;20213;-69
2022/11/14 00:36:54;;;;;;;18.35;16.23;;;;;;;6.10;100.00;102721.19;2071535;28;20267;-69
2022/11/14 00:37:54;;;;;;;17.83;15.77;;;;;;;6.09;100.00;102722.31;2072247;28;20276;-69
2022/11/14 00:38:55;;;;;;;20.90;17.97;;;;;;;6.03;100.00;102715.47;2070561;28;20283;-69
2022/11/14 00:39:55;;;;;;;19.00;17.00;;;;;;;6.04;100.00;102726.13;2071442;28;20188;-69
2022/11/14 00:40:56;;;;;;;18.53;15.87;;;;;;;5.64;100.00;102659.31;2071384;28;20197;-69
2022/11/14 00:41:56;;;;;;;17.63;15.83;;;;;;;5.86;100.00;102691.84;2071458;28;20188;-69
2022/11/14 00:42:57;;;;;;;18.43;14.93;;;;;;;5.91;100.00;102701.78;2070340;28;20693;-69
2022/11/14 00:43:57;;;;;;;19.60;14.77;;;;;;;5.98;100.00;102719.28;2071096;28;20208;-69
2022/11/14 00:44:57;;;;;;;20.20;14.60;;;;;;;5.11;100.00;102576.44;2071530;28;20260;-69
2022/11/14 00:45:58;;;;;;;19.37;14.60;;;;;;;5.96;100.00;102716.09;2071464;28;20205;-69
2022/11/14 00:46:58;;;;;;;19.53;17.07;;;;;;;6.01;100.00;102715.03;2071426;28;20195;-69
2022/11/14 00:47:58;;;;;;;17.53;15.27;;;;;;;5.70;100.00;102657.91;2071503;28;20235;-69
2022/11/14 00:48:59;;;;;;;16.70;14.20;;;;;;;6.04;100.00;102712.38;2071493;28;20196;-69
2022/11/14 00:49:59;;;;;;;17.73;15.63;;;;;;;5.90;100.00;102700.19;2071509;28;20319;-69
2022/11/14 00:51:00;;;;;;;18.53;15.73;;;;;;;5.98;100.00;102704.72;2070840;28;20204;-69
2022/11/14 00:52:00;;;;;;;16.43;14.00;;;;;;;5.97;100.00;102708.63;2070801;28;20184;-69
2022/11/14 00:53:01;;;;;;;17.63;13.40;;;;;;;5.96;100.00;102713.34;2071143;28;20188;-69
2022/11/14 00:54:02;;;;;;;17.27;13.10;;;;;;;5.94;100.00;102706.59;2071607;28;20196;-69
2022/11/14 00:55:02;;;;;;;13.00;11.70;;;;;;;5.32;100.00;102610.84;2071060;28;20662;-69
2022/11/14 00:56:03;;;;;;;12.40;11.10;;;;;;;5.90;100.00;102706.47;2071515;28;20992;-69
2022/11/14 00:57:04;;;;;;;13.43;12.03;;;;;;;5.80;100.00;102690.47;2071273;28;20612;-69
2022/11/14 00:58:04;;;;;;;19.40;15.83;;;;;;;5.89;100.00;102704.09;2071993;28;20209;-69
2022/11/14 00:59:05;;;;;;;21.43;16.00;;;;;;;5.42;100.00;102631.56;2070267;28;20219;-69
2022/11/14 01:00:06;;;;;;;17.77;15.00;;;;;;;5.85;100.00;102700.44;2070850;28;20851;-69
2022/11/14 01:01:06;;;;;;;19.45;16.23;;;;;;;5.80;100.00;102700.69;2071313;28;20604;-69
2022/11/14 01:02:07;;;;;;;18.07;16.07;;;;;;;5.77;100.00;102698.59;2070931;28;20332;-69
2022/11/14 01:03:07;;;;;;;17.90;16.00;;;;;;;5.05;100.00;102597.09;2070941;28;20291;-69
2022/11/14 01:04:08;;;;;;;17.53;14.73;;;;;;;5.30;100.00;102637.91;2071406;28;20185;-69
2022/11/14 01:05:08;;;;;;;17.83;15.93;;;;;;;5.69;100.00;102705.06;2071571;28;20671;-69
2022/11/14 01:06:10;;;;;;;17.87;15.77;;;;;;;4.77;100.00;102561.31;2071552;28;20191;-69
2022/11/14 01:07:11;;;;;;;18.40;15.40;;;;;;;5.50;100.00;102675.44;2071970;28;20189;-69
2022/11/14 01:08:13;;;;;;;16.87;15.17;;;;;;;5.61;100.00;102698.53;2071482;28;21615;-69
2022/11/14 01:09:13;;;;;;;16.75;14.10;;;;;;;5.61;100.00;102692.22;2071151;28;20185;-69
2022/11/14 01:10:15;;;;;;;15.40;13.53;;;;;;;5.56;100.00;102681.47;2071793;28;20651;-69
2022/11/14 01:11:18;;;;;;;16.05;12.95;;;;;;;5.61;100.00;102689.47;2071110;28;20200;-69
2022/11/14 01:12:19;;;;;;;15.27;13.38;;;;;;;5.54;100.00;102687.31;2070926;28;20232;-69
2022/11/14 01:13:19;;;;;;;16.80;14.23;;;;;;;5.55;100.00;102688.13;2070333;28;20204;-69
2022/11/14 01:14:20;;;;;;;16.03;13.50;;;;;;;5.60;100.00;102685.13;2072252;28;20194;-69
2022/11/14 01:15:20;;;;;;;13.00;11.70;;;;;;;5.61;100.00;102684.78;2071203;28;20265;-69
2022/11/14 01:16:20;;;;;;;12.60;11.30;;;;;;;5.64;100.00;102689.56;2071327;28;20174;-69
2022/11/14 01:17:21;;;;;;;13.30;11.80;;;;;;;5.46;100.00;102662.72;2071218;28;20205;-69
2022/11/14 01:18:21;;;;;;;13.30;11.90;;;;;;;5.52;100.00;102669.56;2071480;28;20236;-69
2022/11/14 01:19:22;;;;;;;12.30;11.00;;;;;;;5.08;100.00;102599.16;2071096;28;20185;-69
2022/11/14 01:20:22;;;;;;;16.10;11.73;;;;;;;5.66;100.00;102692.78;2070922;28;20662;-67
2022/11/14 01:21:23;;;;;;;23.27;12.90;;;;;;;5.64;100.00;102716.31;2070833;28;20256;-67
2022/11/14 01:22:23;;;;;;;24.17;13.97;;;;;;;5.04;100.00;102599.03;2072094;28;20196;-67
2022/11/14 01:23:24;;;;;;;20.70;11.97;;;;;;;5.65;100.00;102690.38;2072147;28;20710;-67
2022/11/14 01:24:24;;;;;;;16.53;12.37;;;;;;;5.64;100.00;102689.56;2072893;28;20762;-67
2022/11/14 01:25:25;;;;;;;17.30;11.90;;;;;;;4.26;100.00;102468.72;2072541;28;20209;-66
2022/11/14 01:26:25;;;;;;;16.67;12.13;;;;;;;5.64;100.00;102686.81;2072927;28;20221;-66
2022/11/14 01:27:29;;;;;;;14.90;11.70;;;;;;;5.63;100.00;102690.72;2073131;28;20189;-67
2022/11/14 01:28:30;;;;;;;13.32;11.10;;;;;;;5.00;100.00;102592.63;2072992;28;20396;-67
2022/11/14 01:29:30;;;;;;;13.97;11.57;;;;;;;5.65;100.00;102682.91;2072716;28;20289;-66
2022/11/14 01:30:31;;;;;;;15.13;11.10;;;;;;;5.69;100.00;102691.28;2072920;28;20718;-67
2022/11/14 01:31:31;;;;;;;14.87;12.40;;;;;;;5.75;100.00;102689.91;2072578;28;20220;-66
2022/11/14 01:32:31;;;;;;;14.07;12.50;;;;;;;5.79;100.00;102683.31;2071594;28;20322;-66
2022/11/14 01:33:32;;;;;;;14.13;11.73;;;;;;;5.78;100.00;102690.00;2072037;28;20196;-66
2022/11/14 01:34:32;;;;;;;15.53;11.67;;;;;;;4.88;100.00;102578.13;2072638;28;20273;-66
2022/11/14 01:35:35;;;;;;;14.67;12.80;;;;;;;5.82;100.00;102701.13;2072857;28;20562;-66
2022/11/14 01:36:35;;;;;;;15.75;12.93;;;;;;;5.89;100.00;102693.09;2073674;28;20190;-66
2022/11/14 01:37:36;;;;;;;21.00;13.40;;;;;;;5.92;100.00;102686.84;2072683;28;20203;-66
2022/11/14 01:38:37;;;;;;;21.07;14.27;;;;;;;4.51;100.00;102464.00;2073151;28;20194;-66
2022/11/14 01:39:37;;;;;;;19.97;14.27;;;;;;;5.92;100.00;102684.91;2072519;28;20204;-66
2022/11/14 01:40:42;;;;;;;19.00;13.63;;;;;;;5.37;100.00;102593.31;2072526;28;20312;-66
2022/11/14 01:41:42;;;;;;;16.23;14.43;;;;;;;5.98;100.00;102689.00;2072532;28;20189;-66
2022/11/14 01:43:15;;;;;;;19.43;14.37;;;;;;;5.98;100.00;102682.69;2073076;28;20189;-66
2022/11/14 01:44:37;;;;;;;17.42;14.65;;;;;;;6.02;100.00;102683.59;2072762;28;20182;-67
2022/11/14 01:45:59;;;;;;;17.80;13.95;;;;;;;6.02;100.00;102678.91;2072894;28;20746;-66
2022/11/14 01:47:00;;;;;;;19.63;15.38;;;;;;;6.01;100.00;102682.00;2072654;28;20690;-66
2022/11/14 01:48:00;;;;;;;20.07;15.50;;;;;;;5.99;100.00;102684.28;2072907;28;20572;-67
2022/11/14 01:49:22;;;;;;;23.20;16.17;;;;;;;6.03;100.00;102682.44;2072556;28;20196;-67
2022/11/14 01:50:22;;;;;;;23.23;16.73;;;;;;;6.07;100.00;102684.16;2071803;28;20677;-67
2022/11/14 01:51:29;;;;;;;26.83;17.43;;;;;;;6.05;100.00;102686.44;2072523;28;20607;-67
2022/11/14 01:52:33;;;;;;;33.63;18.58;;;;;;;6.08;100.00;102685.75;2072059;28;20170;-67
2022/11/14 01:53:34;;;;;;;37.13;18.45;;;;;;;5.07;100.00;102524.13;2072186;28;20236;-67
2022/11/14 01:54:38;;;;;;;52.07;20.50;;;;;;;6.12;100.00;102681.16;2072921;28;20191;-67
2022/11/14 01:55:38;;;;;;;37.40;20.67;;;;;;;6.15;100.00;102682.41;2072523;28;20173;-67
2022/11/14 01:56:56;;;;;;;34.37;20.37;;;;;;;5.38;100.00;102559.97;2072760;28;20219;-67
2022/11/14 01:57:57;;;;;;;28.77;20.35;;;;;;;6.27;100.00;102674.88;2072389;28;20211;-67
2022/11/14 01:59:02;;;;;;;28.87;20.00;;;;;;;6.33;100.00;102684.47;2071948;28;20197;-67
2022/11/14 02:00:09;;;;;;;27.13;20.45;;;;;;;5.69;100.00;102589.50;2072628;28;20197;-67
2022/11/14 02:01:09;;;;;;;27.00;19.70;;;;;;;6.28;100.00;102667.38;2073141;28;20188;-67
2022/11/14 02:02:15;;;;;;;26.50;20.67;;;;;;;6.39;100.00;102676.72;2071975;28;20684;-67
2022/11/14 02:03:17;;;;;;;38.58;22.52;;;;;;;6.33;100.00;102658.88;2072061;28;20296;-67
2022/11/14 02:04:30;;;;;;;39.72;23.08;;;;;;;6.47;100.00;102695.81;2072487;28;20185;-67
2022/11/14 02:05:31;;;;;;;32.80;22.23;;;;;;;6.46;100.00;102685.97;2072428;28;20214;-67
2022/11/14 02:06:32;;;;;;;32.17;22.73;;;;;;;6.51;100.00;102682.16;2072590;28;20193;-67
2022/11/14 02:07:36;;;;;;;28.47;22.17;;;;;;;6.56;100.00;102677.16;2072164;28;20174;-67
2022/11/14 02:08:38;;;;;;;32.72;22.83;;;;;;;6.61;100.00;102687.91;2072566;28;20181;-67
2022/11/14 02:09:43;;;;;;;31.00;23.17;;;;;;;6.68;100.00;102690.06;2072156;28;20182;-67
2022/11/14 02:10:43;;;;;;;31.20;22.70;;;;;;;5.77;100.00;102539.00;2072728;28;20264;-67
2022/11/14 02:11:45;;;;;;;30.50;23.17;;;;;;;6.45;100.00;102632.03;2072458;28;20285;-67
2022/11/14 02:12:46;;;;;;;28.10;22.15;;;;;;;6.87;100.00;102679.13;2072086;28;20723;-67
2022/11/14 02:13:46;;;;;;;30.53;23.13;;;;;;;6.93;100.00;102681.22;2071626;28;20613;-67
2022/11/14 02:14:53;;;;;;;31.60;23.33;;;;;;;7.01;100.00;102679.44;2072603;28;20182;-67
2022/11/14 02:15:53;;;;;;;34.78;22.80;;;;;;;7.04;100.00;102681.47;2071592;28;20180;-67
2022/11/14 02:16:54;;;;;;;34.33;21.77;;;;;;;7.07;100.00;102678.03;2072423;28;20236;-67
2022/11/14 02:17:55;;;;;;;29.37;22.60;;;;;;;7.10;100.00;102686.38;2072482;28;20529;-67
2022/11/14 02:18:55;;;;;;;31.57;22.90;;;;;;;7.10;100.00;102686.38;2071580;28;20683;-67
2022/11/14 02:20:04;;;;;;;29.87;22.40;;;;;;;7.14;100.00;102680.94;2071822;28;20194;-67
2022/11/14 02:21:05;;;;;;;33.47;22.05;;;;;;;7.18;100.00;102674.31;2072394;28;20687;-67
2022/11/14 02:22:05;;;;;;;34.43;22.53;;;;;;;7.14;100.00;102670.72;2071925;28;20651;-67
2022/11/14 02:23:06;;;;;;;27.53;21.97;;;;;;;7.22;100.00;102672.44;2071030;28;20216;-67
2022/11/14 02:24:11;;;;;;;27.53;20.73;;;;;;;7.28;100.00;102667.47;2072388;28;20670;-67
2022/11/14 02:25:15;;;;;;;29.83;22.15;;;;;;;7.30;100.00;102701.00;2071990;28;20726;-67
2022/11/14 02:26:19;;;;;;;32.97;23.27;;;;;;;7.30;100.00;102670.66;2072409;28;20683;-67
2022/11/14 02:27:20;;;;;;;35.00;23.65;;;;;;;7.29;100.00;102674.56;2071597;28;21030;-67
2022/11/14 02:28:22;;;;;;;35.53;23.77;;;;;;;7.28;100.00;102672.97;2071564;28;20633;-67
2022/11/14 02:29:22;;;;;;;33.55;23.40;;;;;;;7.25;100.00;102679.19;2071393;28;20179;-67
2022/11/14 02:30:22;;;;;;;34.07;23.23;;;;;;;7.25;100.00;102668.16;2072263;28;20218;-67
2022/11/14 02:31:23;;;;;;;32.10;23.30;;;;;;;7.16;100.00;102657.34;2072501;28;20187;-67
2022/11/14 02:32:23;;;;;;;244.83;28.93;;;;;;;7.15;100.00;102671.50;2071244;28;20572;-67
2022/11/14 02:33:24;;;;;;;167.73;28.30;;;;;;;6.82;100.00;102622.28;2070358;28;20270;-67
2022/11/14 02:34:25;;;;;;;45.70;24.40;;;;;;;7.00;100.00;102653.03;2071783;28;20185;-67
2022/11/14 02:35:25;;;;;;;202.53;28.33;;;;;;;7.18;100.00;102663.28;2072277;28;20277;-67
2022/11/14 02:36:26;;;;;;;116.90;25.87;;;;;;;6.84;100.00;102624.69;2072150;28;20195;-67
2022/11/14 02:37:26;;;;;;;103.50;26.03;;;;;;;6.41;100.00;102567.81;2072501;28;20218;-67
2022/11/14 02:38:27;;;;;;;255.20;29.93;;;;;;;7.15;100.00;102677.00;2071672;28;20188;-67
2022/11/14 02:39:27;;;;;;;171.93;28.63;;;;;;;7.15;100.00;102674.25;2071894;28;20693;-67
2022/11/14 02:40:28;;;;;;;203.03;27.53;;;;;;;7.13;100.00;102674.59;2072180;28;20237;-67
2022/11/14 02:41:28;;;;;;;307.53;30.27;;;;;;;7.11;100.00;102670.59;2072464;28;20214;-67
2022/11/14 02:42:28;;;;;;;197.70;27.73;;;;;;;7.14;100.00;102678.97;2071708;28;20205;-67
2022/11/14 02:43:29;;;;;;;105.20;25.13;;;;;;;7.14;100.00;102673.47;2071908;28;20685;-67
2022/11/14 02:44:29;;;;;;;233.13;28.13;;;;;;;7.15;100.00;102669.53;2072051;28;20195;-67
2022/11/14 02:45:30;;;;;;;104.27;26.27;;;;;;;6.18;100.00;102524.75;2072431;28;20183;-67
2022/11/14 02:46:30;;;;;;;39.50;24.63;;;;;;;7.19;100.00;102675.94;2071438;28;20296;-67
2022/11/14 02:47:31;;;;;;;49.13;25.03;;;;;;;7.14;100.00;102654.16;2071730;28;20182;-67
2022/11/14 02:48:31;;;;;;;51.03;25.43;;;;;;;7.24;100.00;102680.38;2072146;28;20197;-67
2022/11/14 02:49:31;;;;;;;44.80;24.47;;;;;;;7.27;100.00;102674.13;2072029;28;20270;-67
2022/11/14 02:50:32;;;;;;;35.20;24.23;;;;;;;7.32;100.00;102677.41;2072673;28;20323;-67
2022/11/14 02:51:32;;;;;;;58.90;25.33;;;;;;;7.36;100.00;102671.97;2071791;28;20282;-67
2022/11/14 02:52:33;;;;;;;44.03;25.23;;;;;;;7.38;100.00;102677.94;2072004;28;20688;-67
2022/11/14 02:53:33;;;;;;;39.70;24.27;;;;;;;7.37;100.00;102671.59;2071635;28;20208;-67
2022/11/14 02:54:34;;;;;;;34.43;24.13;;;;;;;7.39;100.00;102679.53;2072585;28;20186;-67
2022/11/14 02:55:34;;;;;;;32.23;24.33;;;;;;;7.37;100.00;102676.31;2072170;28;20238;-67
2022/11/14 02:56:35;;;;;;;34.87;23.70;;;;;;;7.36;100.00;102677.47;2072296;28;20200;-67
2022/11/14 02:57:35;;;;;;;30.97;22.83;;;;;;;7.37;100.00;102674.38;2071778;28;20235;-67
2022/11/14 02:58:36;;;;;;;30.33;21.53;;;;;;;7.36;100.00;102678.28;2072165;28;20625;-67
2022/11/14 02:59:36;;;;;;;27.60;22.20;;;;;;;7.35;100.00;102681.41;2072096;28;20181;-67
2022/11/14 03:00:37;;;;;;;28.73;23.00;;;;;;;7.35;100.00;102670.38;2071887;28;20186;-67
2022/11/14 03:01:37;;;;;;;30.07;23.17;;;;;;;7.39;100.00;102674.00;2072451;28;20184;-67
2022/11/14 03:02:37;;;;;;;28.23;22.23;;;;;;;7.36;100.00;102675.53;2070987;28;20215;-67
2022/11/14 03:03:38;;;;;;;24.60;20.83;;;;;;;7.40;100.00;102676.41;2071423;28;20267;-67
2022/11/14 03:04:38;;;;;;;28.07;21.57;;;;;;;7.40;100.00;102670.09;2072356;28;20192;-67
2022/11/14 03:05:39;;;;;;;27.10;21.00;;;;;;;7.43;100.00;102670.16;2071998;28;20207;-67
2022/11/14 03:06:39;;;;;;;30.27;22.00;;;;;;;7.45;100.00;102672.56;2072171;28;20187;-67
2022/11/14 03:07:39;;;;;;;27.13;21.20;;;;;;;7.42;100.00;102654.75;2071923;28;20215;-67
2022/11/14 03:08:40;;;;;;;24.07;19.93;;;;;;;6.33;100.00;102480.69;2072574;28;20969;-67
2022/11/14 03:09:40;;;;;;;25.40;20.07;;;;;;;7.49;100.00;102668.69;2071877;28;20650;-67
2022/11/14 03:10:41;;;;;;;26.63;20.17;;;;;;;6.73;100.00;102541.00;2071990;28;20278;-67
2022/11/14 03:11:41;;;;;;;24.43;19.33;;;;;;;7.48;100.00;102656.06;2072039;28;20188;-67
2022/11/14 03:12:42;;;;;;;24.17;18.63;;;;;;;7.46;100.00;102658.41;2071576;28;20189;-66
2022/11/14 03:13:42;;;;;;;26.87;18.67;;;;;;;7.45;100.00;102665.09;2072034;28;20192;-66
2022/11/14 03:14:42;;;;;;;26.83;19.30;;;;;;;7.46;100.00;102652.06;2072126;28;20182;-67
2022/11/14 03:15:43;;;;;;;32.90;19.13;;;;;;;7.40;100.00;102656.28;2071851;28;20750;-66
2022/11/14 03:16:43;;;;;;;27.73;19.03;;;;;;;7.47;100.00;102661.94;2072095;28;20243;-67
2022/11/14 03:17:44;;;;;;;23.27;18.70;;;;;;;7.24;100.00;102619.69;2071758;28;20188;-67
2022/11/14 03:18:44;;;;;;;28.90;18.60;;;;;;;7.50;100.00;102667.56;2072329;28;20216;-67
2022/11/14 03:19:45;;;;;;;28.10;18.47;;;;;;;7.54;100.00;102664.88;2072012;28;20304;-67
2022/11/14 03:20:45;;;;;;;25.57;18.77;;;;;;;7.58;100.00;102666.53;2071799;28;20664;-66
2022/11/14 03:21:45;;;;;;;24.70;17.90;;;;;;;7.55;100.00;102669.22;2071739;28;20583;-67
2022/11/14 03:22:46;;;;;;;28.97;20.00;;;;;;;7.55;100.00;102672.78;2071422;28;20221;-67
2022/11/14 03:23:46;;;;;;;31.10;20.07;;;;;;;7.58;100.00;102663.00;2071839;28;20274;-67
2022/11/14 03:24:47;;;;;;;26.77;18.53;;;;;;;7.55;100.00;102659.00;2071811;28;20202;-67
2022/11/14 03:25:48;;;;;;;26.17;19.13;;;;;;;7.49;100.00;102663.19;2071588;28;20261;-67
2022/11/14 03:26:48;;;;;;;28.43;18.07;;;;;;;7.40;100.00;102648.00;2071687;28;20556;-67
2022/11/14 03:27:48;;;;;;;26.87;18.10;;;;;;;7.51;100.00;102666.41;2071833;28;20185;-67
2022/11/14 03:28:49;;;;;;;23.77;17.90;;;;;;;6.47;100.00;102494.75;2071939;28;20678;-67
2022/11/14 03:29:49;;;;;;;27.10;18.37;;;;;;;7.52;100.00;102668.00;2071431;28;20608;-67
2022/11/14 03:30:50;;;;;;;23.57;18.03;;;;;;;7.48;100.00;102669.09;2072047;28;20196;-67
2022/11/14 03:31:50;;;;;;;31.50;18.57;;;;;;;7.47;100.00;102668.28;2070877;28;20710;-67
2022/11/14 03:32:51;;;;;;;27.47;18.33;;;;;;;7.47;100.00;102664.69;2071434;28;20270;-67
2022/11/14 03:33:51;;;;;;;25.30;18.97;;;;;;;7.47;100.00;102670.22;2071204;28;20190;-67
2022/11/14 03:34:51;;;;;;;20.50;17.20;;;;;;;7.47;100.00;102667.47;2071768;28;20177;-67
2022/11/14 03:35:52;;;;;;;19.27;17.17;;;;;;;7.43;100.00;102669.38;2071838;28;20201;-67
2022/11/14 03:36:53;;;;;;;19.50;17.20;;;;;;;7.38;100.00;102662.16;2071732;28;20290;-67
2022/11/14 03:37:53;;;;;;;21.70;18.70;;;;;;;7.42;100.00;102667.75;2071774;28;20200;-67
2022/11/14 03:38:54;;;;;;;23.33;18.53;;;;;;;7.25;100.00;102644.16;2070495;28;20556;-67
2022/11/14 03:39:54;;;;;;;20.70;17.33;;;;;;;7.13;100.00;102632.47;2071147;28;20189;-67
2022/11/14 03:40:57;;;;;;;22.50;17.77;;;;;;;7.32;100.00;102674.66;2071519;28;20204;-67
2022/11/14 03:41:57;;;;;;;23.50;17.83;;;;;;;7.27;100.00;102666.66;2072208;28;20177;-67
2022/11/14 03:42:57;;;;;;;20.60;17.63;;;;;;;7.25;100.00;102670.94;2070864;28;20178;-67
2022/11/14 03:43:58;;;;;;;20.83;17.13;;;;;;;5.99;100.00;102477.88;2071682;28;20182;-67
2022/11/14 03:44:58;;;;;;;20.17;17.47;;;;;;;6.60;100.00;102578.88;2071798;28;20227;-67
2022/11/14 03:46:01;;;;;;;18.73;16.17;;;;;;;6.81;100.00;102608.91;2071863;28;20605;-67
2022/11/14 03:47:01;;;;;;;20.40;16.88;;;;;;;7.10;100.00;102657.97;2071804;28;20209;-67
2022/11/14 03:48:02;;;;;;;21.67;17.27;;;;;;;7.17;100.00;102672.72;2071971;28;20220;-66
2022/11/14 03:49:03;;;;;;;20.92;16.90;;;;;;;7.16;100.00;102676.66;2071978;28;20232;-66
2022/11/14 03:50:04;;;;;;;21.80;17.03;;;;;;;7.14;100.00;102669.91;2071823;28;20193;-66
2022/11/14 03:51:04;;;;;;;20.30;16.93;;;;;;;6.78;100.00;102620.63;2071553;28;20185;-66
2022/11/14 03:52:05;;;;;;;20.13;16.83;;;;;;;7.12;100.00;102669.47;2071415;28;20170;-67
2022/11/14 03:53:05;;;;;;;20.80;17.70;;;;;;;7.01;100.00;102660.94;2071364;28;20259;-67
2022/11/14 03:54:06;;;;;;;22.00;17.20;;;;;;;6.93;100.00;102652.88;2071948;28;20743;-66
2022/11/14 03:55:06;;;;;;;21.57;17.67;;;;;;;7.06;100.00;102668.13;2071589;28;20193;-67
2022/11/14 03:56:07;;;;;;;22.80;17.27;;;;;;;7.00;100.00;102662.09;2071371;28;20216;-67
2022/11/14 03:57:07;;;;;;;22.23;17.57;;;;;;;6.95;100.00;102650.53;2072194;28;20635;-67
2022/11/14 03:58:08;;;;;;;21.23;17.37;;;;;;;6.91;100.00;102661.50;2071720;28;20280;-67
2022/11/14 03:59:08;;;;;;;23.37;17.27;;;;;;;6.89;100.00;102666.59;2071915;28;20184;-67
2022/11/14 04:00:09;;;;;;;23.87;17.63;;;;;;;6.88;100.00;102664.97;2071551;28;20183;-67
2022/11/14 04:01:10;;;;;;;24.52;18.10;;;;;;;6.85;100.00;102662.94;2071441;28;20181;-67
2022/11/14 04:02:10;;;;;;;23.37;17.97;;;;;;;6.82;100.00;102665.63;2071681;28;20189;-67
2022/11/14 04:03:11;;;;;;;29.23;19.37;;;;;;;6.48;100.00;102617.56;2071136;28;20186;-67
2022/11/14 04:04:11;;;;;;;29.80;18.37;;;;;;;6.77;100.00;102663.13;2072016;28;20269;-67
2022/11/14 04:05:13;;;;;;;26.50;18.17;;;;;;;6.11;100.00;102566.66;2070898;28;20181;-67
2022/11/14 04:06:14;;;;;;;26.13;19.25;;;;;;;6.69;100.00;102662.16;2071839;28;20440;-67
2022/11/14 04:07:14;;;;;;;25.07;18.30;;;;;;;6.71;100.00;102668.09;2071330;28;20181;-67
2022/11/14 04:08:16;;;;;;;31.73;19.37;;;;;;;6.70;100.00;102658.25;2071518;28;20422;-67
2022/11/14 04:09:16;;;;;;;27.15;19.13;;;;;;;6.71;100.00;102662.59;2071755;28;20699;-67
2022/11/14 04:10:17;;;;;;;31.23;18.87;;;;;;;5.64;100.00;102497.03;2071086;28;20609;-67
2022/11/14 04:11:18;;;;;;;34.47;18.63;;;;;;;6.68;100.00;102663.31;2071470;28;20192;-67
2022/11/14 04:12:19;;;;;;;27.63;18.65;;;;;;;6.66;100.00;102668.38;2071121;28;20182;-67
2022/11/14 04:13:19;;;;;;;27.53;18.40;;;;;;;6.15;100.00;102591.56;2071148;28;20205;-67
2022/11/14 04:14:19;;;;;;;31.73;18.90;;;;;;;6.65;100.00;102669.53;2070945;28;20227;-67
2022/11/14 04:15:20;;;;;;;33.73;19.80;;;;;;;6.64;100.00;102672.63;2071479;28;20189;-67
2022/11/14 04:16:20;;;;;;;29.80;19.00;;;;;;;6.68;100.00;102663.31;2071585;28;20194;-67
2022/11/14 04:17:21;;;;;;;30.70;18.97;;;;;;;6.32;100.00;102611.28;2071505;28;20209;-67
2022/11/14 04:18:22;;;;;;;32.40;19.20;;;;;;;6.27;100.00;102605.22;2072103;28;20193;-67
2022/11/14 04:19:22;;;;;;;46.47;18.75;;;;;;;6.57;100.00;102665.00;2071637;28;20190;-67
2022/11/14 04:20:23;;;;;;;28.63;18.77;;;;;;;6.64;100.00;102670.69;2071774;28;20193;-67
2022/11/14 04:21:23;;;;;;;34.83;20.00;;;;;;;6.64;100.00;102670.69;2071208;28;20194;-67
2022/11/14 04:22:23;;;;;;;38.17;19.63;;;;;;;6.56;100.00;102659.84;2071534;28;20260;-67
2022/11/14 04:23:24;;;;;;;60.17;21.67;;;;;;;6.63;100.00;102674.63;2071021;28;20675;-67
2022/11/14 04:24:24;;;;;;;60.97;20.57;;;;;;;6.60;100.00;102669.00;2071534;28;20181;-67
2022/11/14 04:25:25;;;;;;;31.23;19.43;;;;;;;6.65;100.00;102671.47;2071684;28;20668;-67
2022/11/14 04:26:25;;;;;;;42.83;20.37;;;;;;;6.54;100.00;102665.72;2071618;28;20189;-67
2022/11/14 04:27:26;;;;;;;33.40;19.43;;;;;;;6.62;100.00;102681.25;2072344;28;20186;-67
2022/11/14 04:28:26;;;;;;;49.67;21.83;;;;;;;6.54;100.00;102673.16;2071488;28;20660;-67
2022/11/14 04:29:26;;;;;;;44.10;20.83;;;;;;;6.04;100.00;102594.00;2071703;28;20622;-67
2022/11/14 04:30:27;;;;;;;47.40;20.23;;;;;;;6.61;100.00;102678.88;2071549;28;20189;-67
2022/11/14 04:31:27;;;;;;;54.03;20.57;;;;;;;6.38;100.00;102642.88;2071345;28;20666;-67
2022/11/14 04:32:28;;;;;;;47.97;20.53;;;;;;;6.59;100.00;102706.78;2070908;28;20552;-67
2022/11/14 04:33:28;;;;;;;67.50;21.87;;;;;;;6.58;100.00;102679.56;2071283;28;20191;-67
2022/11/14 04:34:29;;;;;;;59.60;21.17;;;;;;;6.59;100.00;102681.16;2071234;28;20200;-67
2022/11/14 04:35:29;;;;;;;65.77;21.37;;;;;;;6.54;100.00;102679.50;2071890;28;20189;-67
2022/11/14 04:36:30;;;;;;;45.43;21.07;;;;;;;6.55;100.00;102683.03;2071591;28;20219;-67
2022/11/14 04:37:30;;;;;;;45.63;21.57;;;;;;;6.50;100.00;102670.34;2071752;28;20185;-67
2022/11/14 04:38:31;;;;;;;44.10;22.50;;;;;;;6.58;100.00;102687.84;2071410;28;20251;-67